createdAt,value
2019-05-09T00:01:35.304Z,10.60
2019-05-09T00:04:04.890Z,10.60
2019-05-09T00:06:34.277Z,10.50
2019-05-09T00:09:04.004Z,10.50
2019-05-09T00:11:33.659Z,10.40
2019-05-09T00:14:04.403Z,10.40
2019-05-09T00:16:34.013Z,10.30
2019-05-09T00:19:03.543Z,10.20
2019-05-09T00:21:38.616Z,10.20
2019-05-09T00:24:08.085Z,10.10
2019-05-09T00:26:37.474Z,10.10
2019-05-09T00:29:13.907Z,10.00
2019-05-09T00:31:54.077Z,9.90
2019-05-09T00:34:33.697Z,9.90
2019-05-09T00:37:03.073Z,9.90
2019-05-09T00:39:34.103Z,9.80
2019-05-09T00:42:04.417Z,9.80
2019-05-09T00:44:35.725Z,9.80
2019-05-09T00:47:13.478Z,9.80
2019-05-09T00:49:43.496Z,9.70
2019-05-09T00:52:14.157Z,9.70
2019-05-09T00:54:43.821Z,9.70
2019-05-09T00:57:33.573Z,9.70
2019-05-09T01:00:05.726Z,9.70
2019-05-09T01:02:35.077Z,9.70
2019-05-09T01:05:04.637Z,9.70
2019-05-09T01:07:34.043Z,9.60
2019-05-09T01:10:04.263Z,9.60
2019-05-09T01:12:34.197Z,9.50
2019-05-09T01:15:03.611Z,9.50
2019-05-09T01:17:33.599Z,9.40
2019-05-09T01:20:03.579Z,9.40
2019-05-09T01:22:33.209Z,9.40
2019-05-09T01:25:04.211Z,9.30
2019-05-09T01:27:34.057Z,9.30
2019-05-09T01:30:04.648Z,9.30
2019-05-09T01:32:53.970Z,9.30
2019-05-09T01:35:23.391Z,9.40
2019-05-09T01:37:53.892Z,9.30
2019-05-09T01:40:23.923Z,9.40
2019-05-09T01:42:53.855Z,9.30
2019-05-09T01:45:23.755Z,9.30
2019-05-09T01:47:53.818Z,9.30
2019-05-09T01:50:23.414Z,9.30
2019-05-09T01:52:53.435Z,9.20
2019-05-09T01:55:24.466Z,9.20
2019-05-09T01:57:54.001Z,9.20
2019-05-09T02:00:23.908Z,9.20
2019-05-09T02:02:54.050Z,9.20
2019-05-09T02:05:24.080Z,9.20
2019-05-09T02:07:54.218Z,9.10
2019-05-09T02:10:23.710Z,9.10
2019-05-09T02:12:53.779Z,9.10
2019-05-09T02:15:35.300Z,9.10
2019-05-09T02:18:13.874Z,9.00
2019-05-09T02:20:43.917Z,9.00
2019-05-09T02:23:13.984Z,8.90
2019-05-09T02:25:43.888Z,8.90
2019-05-09T02:28:14.184Z,8.90
2019-05-09T02:30:45.025Z,8.80
2019-05-09T02:33:14.804Z,8.80
2019-05-09T02:35:55.776Z,8.80
2019-05-09T02:38:15.252Z,8.80
2019-05-09T02:40:44.654Z,8.80
2019-05-09T02:43:14.048Z,8.70
2019-05-09T02:45:52.839Z,8.70
2019-05-09T02:48:21.471Z,8.70
2019-05-09T02:50:50.882Z,8.70
2019-05-09T02:53:20.287Z,8.70
2019-05-09T02:55:49.768Z,8.60
2019-05-09T02:58:20.826Z,8.60
2019-05-09T03:01:15.078Z,8.60
2019-05-09T03:03:44.455Z,8.60
2019-05-09T03:06:13.843Z,8.60
2019-05-09T03:08:53.087Z,8.60
2019-05-09T03:11:22.459Z,8.50
2019-05-09T03:13:51.842Z,8.50
2019-05-09T03:16:21.370Z,8.50
2019-05-09T03:18:50.722Z,8.50
2019-05-09T03:21:29.922Z,8.50
2019-05-09T03:23:59.787Z,8.50
2019-05-09T03:26:32.823Z,8.50
2019-05-09T03:29:33.086Z,8.50
2019-05-09T03:32:02.522Z,8.50
2019-05-09T03:34:31.881Z,8.40
2019-05-09T03:37:01.230Z,8.40
2019-05-09T03:39:30.562Z,8.40
2019-05-09T03:41:59.930Z,8.40
2019-05-09T03:44:29.286Z,8.40
2019-05-09T03:47:37.671Z,8.40
2019-05-09T03:50:17.748Z,8.40
2019-05-09T03:52:47.821Z,8.40
2019-05-09T03:55:21.936Z,8.40
2019-05-09T03:57:58.047Z,8.40
2019-05-09T04:00:28.365Z,8.40
2019-05-09T04:02:58.179Z,8.40
2019-05-09T04:05:27.905Z,8.40
2019-05-09T04:08:18.246Z,8.30
2019-05-09T04:10:50.219Z,8.30
2019-05-09T04:13:22.297Z,8.40
2019-05-09T04:15:51.641Z,8.40
2019-05-09T04:18:21.042Z,8.30
2019-05-09T04:20:50.398Z,8.30
2019-05-09T04:23:19.766Z,8.30
2019-05-09T04:25:55.062Z,8.40
2019-05-09T04:28:24.456Z,8.30
2019-05-09T04:30:53.822Z,8.40
2019-05-09T04:33:23.202Z,8.40
2019-05-09T04:35:52.562Z,8.40
2019-05-09T04:38:21.917Z,8.40
2019-05-09T04:40:51.315Z,8.40
2019-05-09T04:43:27.298Z,8.40
2019-05-09T04:45:57.906Z,8.40
2019-05-09T04:48:34.288Z,8.40
2019-05-09T04:51:07.757Z,8.50
2019-05-09T04:53:37.719Z,8.50
2019-05-09T04:56:21.851Z,8.50
2019-05-09T04:58:51.243Z,8.50
2019-05-09T05:01:38.986Z,8.50
2019-05-09T05:04:09.130Z,8.60
2019-05-09T05:06:40.497Z,8.70
2019-05-09T05:09:09.735Z,8.70
2019-05-09T05:11:39.234Z,8.80
2019-05-09T05:14:10.679Z,8.90
2019-05-09T05:16:40.116Z,8.90
2019-05-09T05:19:09.450Z,8.90
2019-05-09T05:21:38.802Z,8.90
2019-05-09T05:24:18.459Z,8.90
2019-05-09T05:26:48.450Z,9.00
2019-05-09T05:29:18.211Z,9.00
2019-05-09T05:31:47.834Z,9.00
2019-05-09T05:34:23.244Z,9.10
2019-05-09T05:36:52.627Z,9.10
2019-05-09T05:39:22.011Z,9.10
2019-05-09T05:41:51.549Z,9.10
2019-05-09T05:44:20.936Z,9.10
2019-05-09T05:47:15.211Z,9.10
2019-05-09T05:49:44.622Z,9.20
2019-05-09T05:52:13.994Z,9.20
2019-05-09T05:54:43.351Z,9.20
2019-05-09T05:57:12.752Z,9.20
2019-05-09T05:59:42.342Z,9.20
2019-05-09T06:02:11.707Z,9.20
2019-05-09T06:04:41.158Z,9.20
2019-05-09T06:07:10.534Z,9.20
2019-05-09T06:09:39.952Z,9.20
2019-05-09T06:12:09.338Z,9.10
2019-05-09T06:14:38.713Z,9.10
2019-05-09T06:17:08.310Z,9.10
2019-05-09T06:19:38.240Z,9.10
2019-05-09T06:22:08.402Z,9.10
2019-05-09T06:24:38.630Z,9.10
2019-05-09T06:27:10.471Z,9.10
2019-05-09T06:29:39.722Z,9.00
2019-05-09T06:32:09.097Z,9.00
2019-05-09T06:34:42.011Z,9.00
2019-05-09T06:37:09.508Z,9.10
2019-05-09T06:39:38.994Z,9.10
2019-05-09T06:42:09.185Z,9.10
2019-05-09T06:45:09.942Z,9.10
2019-05-09T06:47:42.620Z,9.10
2019-05-09T06:50:14.364Z,9.00
2019-05-09T06:52:43.749Z,9.10
2019-05-09T06:55:13.442Z,9.00
2019-05-09T06:57:43.253Z,9.00
2019-05-09T07:00:23.991Z,9.00
2019-05-09T07:03:00.736Z,9.00
2019-05-09T07:05:33.635Z,9.00
2019-05-09T07:08:10.194Z,9.00
2019-05-09T07:10:39.595Z,8.90
2019-05-09T07:13:08.986Z,8.90
2019-05-09T07:15:38.344Z,8.90
2019-05-09T07:18:08.215Z,9.00
2019-05-09T07:20:38.055Z,9.00
2019-05-09T07:23:09.023Z,9.00
2019-05-09T07:26:07.723Z,9.10
2019-05-09T07:28:37.739Z,9.10
2019-05-09T07:31:29.943Z,9.20
2019-05-09T07:34:13.154Z,9.20
2019-05-09T07:36:42.561Z,9.20
2019-05-09T07:39:11.954Z,9.20
2019-05-09T07:41:41.318Z,9.20
2019-05-09T07:44:10.655Z,9.30
2019-05-09T07:46:48.068Z,9.30
2019-05-09T07:49:17.626Z,9.30
2019-05-09T07:51:47.737Z,9.30
2019-05-09T07:54:24.708Z,9.30
2019-05-09T07:56:48.643Z,9.30
2019-05-09T07:59:18.268Z,9.30
2019-05-09T08:01:48.744Z,9.30
2019-05-09T08:04:18.462Z,9.30
2019-05-09T08:06:48.621Z,9.30
2019-05-09T08:09:18.770Z,9.30
2019-05-09T08:11:48.547Z,9.30
2019-05-09T08:14:17.938Z,9.30
2019-05-09T08:16:47.597Z,9.30
2019-05-09T08:19:18.104Z,9.30
2019-05-09T08:21:48.097Z,9.30
2019-05-09T08:24:18.291Z,9.30
2019-05-09T08:26:47.990Z,9.40
2019-05-09T08:29:19.834Z,9.30
2019-05-09T08:31:48.621Z,9.40
2019-05-09T08:34:18.796Z,9.40
2019-05-09T08:36:48.227Z,9.40
2019-05-09T08:39:18.419Z,9.50
2019-05-09T08:41:48.705Z,9.50
2019-05-09T08:44:18.657Z,9.50
2019-05-09T08:46:48.282Z,9.50
2019-05-09T08:49:21.442Z,9.50
2019-05-09T08:52:08.988Z,9.50
2019-05-09T08:54:42.757Z,9.50
2019-05-09T08:57:12.263Z,9.60
2019-05-09T08:59:41.640Z,9.60
2019-05-09T09:02:15.271Z,9.70
2019-05-09T09:04:42.166Z,9.70
2019-05-09T09:07:11.644Z,9.70
2019-05-09T09:09:41.012Z,9.70
2019-05-09T09:12:26.177Z,9.70
2019-05-09T09:14:41.398Z,9.80
2019-05-09T09:17:10.830Z,9.80
2019-05-09T09:19:40.175Z,9.80
2019-05-09T09:22:09.559Z,9.90
2019-05-09T09:24:38.982Z,9.80
2019-05-09T09:27:08.511Z,9.90
2019-05-09T09:29:38.216Z,9.90
2019-05-09T09:32:08.507Z,9.90
2019-05-09T09:34:38.252Z,9.90
2019-05-09T09:37:11.253Z,9.90
2019-05-09T09:39:44.582Z,9.90
2019-05-09T09:42:09.834Z,9.90
2019-05-09T09:44:39.629Z,9.90
2019-05-09T09:47:09.476Z,9.90
2019-05-09T09:49:38.983Z,10.00
2019-05-09T09:52:08.897Z,10.00
2019-05-09T09:54:38.865Z,10.00
2019-05-09T09:57:09.699Z,10.00
2019-05-09T10:00:04.415Z,10.10
2019-05-09T10:02:37.792Z,10.10
2019-05-09T10:05:07.880Z,10.30
2019-05-09T10:07:40.125Z,10.30
2019-05-09T10:10:11.233Z,10.40
2019-05-09T10:12:44.447Z,10.40
2019-05-09T10:15:28.424Z,10.50
2019-05-09T10:18:07.534Z,10.60
2019-05-09T10:20:41.812Z,10.70
2019-05-09T10:23:18.280Z,10.70
2019-05-09T10:25:42.560Z,10.70
2019-05-09T10:28:12.059Z,10.80
2019-05-09T10:30:41.486Z,10.80
2019-05-09T10:33:10.876Z,10.90
2019-05-09T10:35:40.559Z,10.90
2019-05-09T10:38:09.933Z,10.80
2019-05-09T10:40:40.381Z,10.80
2019-05-09T10:43:35.813Z,10.80
2019-05-09T10:46:08.415Z,10.70
2019-05-09T10:48:44.418Z,10.70
2019-05-09T10:51:13.946Z,10.70
2019-05-09T10:53:43.350Z,10.70
2019-05-09T10:56:12.891Z,10.70
2019-05-09T10:58:42.374Z,10.70
2019-05-09T11:01:11.850Z,10.70
2019-05-09T11:03:41.326Z,10.70
2019-05-09T11:06:10.715Z,10.70
2019-05-09T11:08:40.095Z,10.70
2019-05-09T11:11:09.624Z,10.70
2019-05-09T11:13:39.335Z,10.80
2019-05-09T11:16:08.755Z,10.80
2019-05-09T11:18:38.244Z,10.80
2019-05-09T11:21:08.356Z,10.80
2019-05-09T11:23:39.311Z,10.80
2019-05-09T11:26:08.870Z,11.00
2019-05-09T11:28:38.438Z,11.10
2019-05-09T11:31:08.353Z,11.30
2019-05-09T11:33:38.619Z,11.50
2019-05-09T11:36:09.777Z,11.80
2019-05-09T11:38:43.674Z,12.00
2019-05-09T11:41:10.481Z,12.20
2019-05-09T11:43:40.068Z,12.40
2019-05-09T11:46:10.479Z,12.60
2019-05-09T11:48:40.525Z,12.80
2019-05-09T11:51:10.007Z,12.90
2019-05-09T11:53:40.141Z,13.10
2019-05-09T11:56:09.712Z,13.20
2019-05-09T11:58:39.118Z,13.40
2019-05-09T12:01:09.603Z,13.60
2019-05-09T12:03:39.274Z,13.70
2019-05-09T12:06:08.832Z,13.80
2019-05-09T12:08:38.830Z,14.00
2019-05-09T12:11:08.541Z,14.10
2019-05-09T12:13:38.389Z,14.10
2019-05-09T12:16:07.811Z,14.10
2019-05-09T12:18:37.884Z,14.10
2019-05-09T12:21:08.498Z,14.20
2019-05-09T12:23:38.058Z,14.20
2019-05-09T12:26:08.161Z,14.20
2019-05-09T12:28:38.705Z,14.30
2019-05-09T12:31:08.635Z,14.50
2019-05-09T12:33:38.862Z,14.80
2019-05-09T12:36:09.180Z,15.10
2019-05-09T12:38:39.378Z,15.40
2019-05-09T12:41:09.179Z,15.60
2019-05-09T12:43:38.775Z,15.90
2019-05-09T12:46:08.705Z,16.10
2019-05-09T12:48:38.464Z,16.30
2019-05-09T12:51:08.281Z,16.50
2019-05-09T12:53:39.613Z,16.80
2019-05-09T12:56:09.085Z,16.80
2019-05-09T12:58:38.589Z,16.90
2019-05-09T13:01:08.015Z,17.00
2019-05-09T13:03:38.446Z,17.00
2019-05-09T13:06:20.300Z,17.00
2019-05-09T13:08:49.871Z,17.10
2019-05-09T13:11:20.177Z,17.10
2019-05-09T13:13:49.859Z,17.30
2019-05-09T13:16:53.898Z,17.40
2019-05-09T13:19:29.888Z,17.60
2019-05-09T13:21:59.607Z,17.80
2019-05-09T13:24:29.161Z,17.90
2019-05-09T13:26:58.743Z,17.90
2019-05-09T13:29:29.643Z,17.90
2019-05-09T13:31:59.648Z,17.90
2019-05-09T13:34:29.244Z,17.90
2019-05-09T13:36:59.140Z,17.90
2019-05-09T13:39:29.130Z,17.90
2019-05-09T13:41:58.760Z,17.90
2019-05-09T13:44:28.300Z,17.80
2019-05-09T13:46:58.423Z,17.90
2019-05-09T13:49:28.684Z,18.00
2019-05-09T13:52:04.412Z,18.00
2019-05-09T13:54:29.439Z,18.10
2019-05-09T13:57:01.458Z,18.20
2019-05-09T13:59:30.359Z,18.20
2019-05-09T14:02:00.131Z,18.10
2019-05-09T14:04:29.662Z,18.20
2019-05-09T14:06:59.169Z,18.30
2019-05-09T14:09:29.405Z,18.30
2019-05-09T14:11:59.485Z,18.30
2019-05-09T14:14:28.927Z,18.30
2019-05-09T14:16:59.212Z,18.20
2019-05-09T14:19:39.647Z,18.20
2019-05-09T14:22:00.298Z,18.10
2019-05-09T14:24:30.046Z,18.20
2019-05-09T14:26:59.469Z,18.40
2019-05-09T14:29:32.000Z,18.40
2019-05-09T14:32:04.964Z,18.50
2019-05-09T14:34:32.830Z,18.40
2019-05-09T14:37:02.294Z,18.30
2019-05-09T14:39:32.235Z,18.30
2019-05-09T14:42:01.647Z,18.20
2019-05-09T14:44:31.066Z,18.00
2019-05-09T14:47:00.522Z,17.90
2019-05-09T14:49:40.504Z,17.90
2019-05-09T14:52:01.091Z,17.70
2019-05-09T14:54:30.574Z,17.70
2019-05-09T14:57:00.435Z,17.80
2019-05-09T14:59:30.004Z,17.80
2019-05-09T15:01:59.521Z,17.90
2019-05-09T15:04:29.117Z,17.90
2019-05-09T15:06:58.875Z,17.90
2019-05-09T15:09:28.562Z,17.90
2019-05-09T15:11:58.551Z,18.00
2019-05-09T15:14:28.886Z,18.00
2019-05-09T15:16:58.647Z,18.10
2019-05-09T15:19:28.726Z,18.20
2019-05-09T15:22:00.712Z,18.20
2019-05-09T15:24:29.795Z,18.30
2019-05-09T15:26:59.432Z,18.30
2019-05-09T15:29:29.217Z,18.20
2019-05-09T15:32:04.478Z,18.20
2019-05-09T15:34:29.835Z,18.20
2019-05-09T15:36:59.358Z,18.20
2019-05-09T15:39:28.774Z,18.30
2019-05-09T15:41:58.191Z,18.40
2019-05-09T15:44:27.742Z,18.50
2019-05-09T15:47:07.580Z,18.60
2019-05-09T15:49:38.493Z,18.70
2019-05-09T15:52:08.278Z,18.80
2019-05-09T15:54:38.658Z,18.70
2019-05-09T15:57:08.815Z,18.60
2019-05-09T15:59:39.118Z,18.40
2019-05-09T16:02:09.335Z,18.20
2019-05-09T16:04:40.309Z,18.00
2019-05-09T16:07:09.967Z,17.80
2019-05-09T16:09:39.414Z,17.70
2019-05-09T16:12:09.081Z,17.50
2019-05-09T16:14:38.842Z,17.50
2019-05-09T16:17:08.562Z,17.60
2019-05-09T16:19:38.191Z,17.50
2019-05-09T16:22:08.124Z,17.30
2019-05-09T16:24:41.791Z,17.10
2019-05-09T16:27:11.309Z,17.00
2019-05-09T16:29:40.858Z,17.00
2019-05-09T16:32:10.904Z,16.90
2019-05-09T16:34:40.376Z,17.20
2019-05-09T16:37:09.863Z,17.60
2019-05-09T16:39:39.454Z,17.80
2019-05-09T16:42:08.945Z,17.70
2019-05-09T16:44:41.742Z,17.60
2019-05-09T16:47:09.586Z,17.60
2019-05-09T16:49:39.047Z,17.60
2019-05-09T16:52:08.627Z,17.50
2019-05-09T16:54:40.855Z,17.40
2019-05-09T16:57:10.272Z,17.20
2019-05-09T16:59:39.951Z,17.00
2019-05-09T17:02:18.727Z,16.90
2019-05-09T17:04:40.514Z,16.80
2019-05-09T17:07:11.959Z,16.60
2019-05-09T17:09:44.923Z,16.40
2019-05-09T17:12:14.519Z,16.20
2019-05-09T17:14:43.992Z,16.10
2019-05-09T17:17:14.526Z,15.90
2019-05-09T17:19:43.887Z,15.80
2019-05-09T17:22:35.330Z,15.70
2019-05-09T17:25:03.278Z,15.60
2019-05-09T17:27:32.666Z,15.50
2019-05-09T17:30:02.136Z,15.40
2019-05-09T17:32:31.616Z,15.30
2019-05-09T17:35:01.211Z,15.20
2019-05-09T17:37:30.706Z,15.10
2019-05-09T17:40:00.202Z,15.00
2019-05-09T17:42:31.099Z,14.90
2019-05-09T17:45:00.698Z,14.90
2019-05-09T17:47:30.110Z,14.80
2019-05-09T17:49:59.658Z,14.70
2019-05-09T17:52:29.071Z,14.70
2019-05-09T17:54:59.095Z,14.60
2019-05-09T17:57:28.658Z,14.60
2019-05-09T17:59:58.702Z,14.50
2019-05-09T18:02:30.328Z,14.40
2019-05-09T18:04:59.766Z,14.30
2019-05-09T18:07:29.224Z,14.20
2019-05-09T18:09:58.686Z,14.10
2019-05-09T18:12:28.333Z,14.00
2019-05-09T18:14:57.840Z,13.90
2019-05-09T18:17:27.637Z,13.80
2019-05-09T18:19:58.413Z,13.60
2019-05-09T18:22:28.290Z,13.50
2019-05-09T18:24:57.831Z,13.40
2019-05-09T18:27:27.517Z,13.30
2019-05-09T18:29:58.247Z,13.20
2019-05-09T18:32:47.457Z,13.00
2019-05-09T18:35:21.230Z,12.90
2019-05-09T18:37:50.912Z,12.80
2019-05-09T18:40:21.990Z,12.70
2019-05-09T18:42:51.463Z,12.50
2019-05-09T18:45:21.708Z,12.30
2019-05-09T18:47:51.546Z,12.20
2019-05-09T18:50:21.459Z,12.20
2019-05-09T18:52:50.938Z,12.10
2019-05-09T18:55:21.237Z,12.00
2019-05-09T18:57:50.809Z,11.80
2019-05-09T19:00:21.609Z,11.80
2019-05-09T19:02:51.158Z,11.70
2019-05-09T19:05:21.150Z,11.60
2019-05-09T19:07:50.586Z,11.50
2019-05-09T19:10:20.011Z,11.50
2019-05-09T19:12:49.453Z,11.40
2019-05-09T19:15:47.805Z,11.30
2019-05-09T19:18:29.068Z,11.30
2019-05-09T19:21:06.372Z,11.20
2019-05-09T19:23:35.818Z,11.10
2019-05-09T19:26:07.070Z,11.10
2019-05-09T19:28:36.415Z,11.00
2019-05-09T19:31:05.818Z,10.90
2019-05-09T19:33:35.308Z,10.90
2019-05-09T19:36:04.739Z,10.80
2019-05-09T19:38:34.158Z,10.70
2019-05-09T19:41:03.596Z,10.70
2019-05-09T19:43:33.003Z,10.60
2019-05-09T19:46:02.423Z,10.60
2019-05-09T19:48:31.800Z,10.50
2019-05-09T19:51:01.204Z,10.50
2019-05-09T19:53:30.623Z,10.40
2019-05-09T19:56:00.011Z,10.40
2019-05-09T19:58:29.438Z,10.30
2019-05-09T20:00:58.802Z,10.20
2019-05-09T20:03:28.658Z,10.20
2019-05-09T20:05:58.301Z,10.10
2019-05-09T20:08:27.788Z,10.10
2019-05-09T20:11:22.124Z,10.00
2019-05-09T20:14:14.026Z,10.00
2019-05-09T20:16:46.612Z,9.90
2019-05-09T20:19:16.007Z,9.90
2019-05-09T20:21:45.420Z,9.90
2019-05-09T20:24:14.808Z,9.80
2019-05-09T20:26:44.164Z,9.80
2019-05-09T20:29:13.608Z,9.80
2019-05-09T20:31:43.137Z,9.70
2019-05-09T20:34:12.596Z,9.70
2019-05-09T20:36:42.006Z,9.70
2019-05-09T20:39:11.582Z,9.70
2019-05-09T20:41:41.150Z,9.60
2019-05-09T20:44:10.761Z,9.60
2019-05-09T20:46:40.338Z,9.60
2019-05-09T20:49:09.979Z,9.60
2019-05-09T20:51:39.728Z,9.50
2019-05-09T20:54:20.635Z,9.50
2019-05-09T20:56:40.537Z,9.50
2019-05-09T20:59:11.174Z,9.50
2019-05-09T21:01:40.742Z,9.50
2019-05-09T21:04:10.313Z,9.40
2019-05-09T21:06:39.942Z,9.40
2019-05-09T21:09:09.513Z,9.40
2019-05-09T21:11:39.086Z,9.40
2019-05-09T21:14:08.637Z,9.40
2019-05-09T21:16:38.311Z,9.40
2019-05-09T21:19:07.871Z,9.40
2019-05-09T21:21:37.602Z,9.40
2019-05-09T21:24:07.154Z,9.30
2019-05-09T21:26:36.803Z,9.30
2019-05-09T21:29:06.493Z,9.20
2019-05-09T21:31:36.089Z,9.20
2019-05-09T21:34:05.695Z,9.20
2019-05-09T21:36:35.378Z,9.20
2019-05-09T21:39:06.163Z,9.20
2019-05-09T21:41:35.588Z,9.20
2019-05-09T21:44:04.987Z,9.20
2019-05-09T21:46:34.454Z,9.20
2019-05-09T21:49:03.799Z,9.20
2019-05-09T21:51:33.201Z,9.20
2019-05-09T21:54:02.584Z,9.20
2019-05-09T21:56:31.944Z,9.20
2019-05-09T21:59:01.357Z,9.30
2019-05-09T22:01:30.749Z,9.30
2019-05-09T22:04:00.130Z,9.30
2019-05-09T22:06:29.502Z,9.30
2019-05-09T22:08:59.023Z,9.20
2019-05-09T22:11:28.429Z,9.20
2019-05-09T22:13:57.887Z,9.20
2019-05-09T22:16:27.242Z,9.10
2019-05-09T22:18:56.686Z,9.10
2019-05-09T22:21:26.122Z,9.00
2019-05-09T22:23:56.979Z,9.00
2019-05-09T22:26:26.558Z,8.90
2019-05-09T22:28:55.907Z,8.90
2019-05-09T22:31:25.331Z,8.90
2019-05-09T22:33:54.671Z,8.80
2019-05-09T22:36:24.112Z,8.80
2019-05-09T22:38:53.481Z,8.70
2019-05-09T22:41:22.906Z,8.70
2019-05-09T22:43:52.345Z,8.60
2019-05-09T22:46:21.730Z,8.60
2019-05-09T22:48:51.126Z,8.50
2019-05-09T22:51:20.637Z,8.40
2019-05-09T22:53:50.039Z,8.30
2019-05-09T22:56:19.490Z,8.30
2019-05-09T22:58:49.100Z,8.30
2019-05-09T23:01:18.607Z,8.20
2019-05-09T23:03:50.291Z,8.20
2019-05-09T23:06:19.746Z,8.10
2019-05-09T23:08:49.191Z,8.00
2019-05-09T23:11:18.674Z,8.00
2019-05-09T23:13:54.015Z,8.00
2019-05-09T23:16:24.642Z,7.90
2019-05-09T23:18:54.398Z,7.90
2019-05-09T23:21:27.878Z,7.90
2019-05-09T23:24:00.519Z,7.80
2019-05-09T23:26:29.901Z,7.80
2019-05-09T23:28:59.324Z,7.80
2019-05-09T23:31:43.213Z,7.80
2019-05-09T23:34:12.761Z,7.80
2019-05-09T23:36:42.106Z,7.70
2019-05-09T23:39:16.393Z,7.70
2019-05-09T23:41:46.023Z,7.70
2019-05-09T23:44:15.527Z,7.70
2019-05-09T23:46:45.033Z,7.70
2019-05-09T23:49:14.481Z,7.60
2019-05-09T23:51:45.204Z,7.60
2019-05-09T23:54:45.461Z,7.60
2019-05-09T23:57:22.773Z,7.50
